Time;durP1;ratioP1;P1;durP2;ratioP2;P2;SDS_P1;SDS_P2;PMS_P1;PMS_P2;Temp;Humidity;BMP_temperature;BMP_pressure;BME280_temperature;BME280_humidity;BME280_pressure;Samples;Min_cycle;Max_cycle;Signal;HPM_P1;HPM_P2
2021/12/31 00:01:18;;;;;;;6.03;3.50;;;15.30;81.40;;;;;;6197492;23;20157;-89
2021/12/31 00:03:44;;;;;;;6.22;2.45;;;15.40;81.60;;;;;;6195926;23;20446;-90
2021/12/31 00:06:10;;;;;;;4.60;2.13;;;15.40;81.80;;;;;;6196754;23;20189;-89
2021/12/31 00:08:36;;;;;;;4.07;2.23;;;15.40;81.50;;;;;;6203126;23;20408;-89
2021/12/31 00:11:01;;;;;;;4.20;2.40;;;15.30;81.20;;;;;;6204639;23;20236;-89
2021/12/31 00:13:30;;;;;;;9.70;2.50;;;15.50;81.30;;;;;;6203135;23;20173;-89
2021/12/31 00:15:56;;;;;;;7.50;2.42;;;15.50;81.10;;;;;;6199606;23;20153;-88
2021/12/31 00:18:22;;;;;;;5.13;2.30;;;15.60;80.90;;;;;;6194507;23;20212;-88
2021/12/31 00:20:48;;;;;;;8.15;2.30;;;15.60;80.90;;;;;;6192138;23;20153;-89
2021/12/31 00:23:16;;;;;;;4.90;2.50;;;15.60;80.80;;;;;;6193962;23;20176;-89
2021/12/31 00:25:43;;;;;;;7.82;2.88;;;15.50;80.60;;;;;;6205128;23;20406;-89
2021/12/31 00:28:11;;;;;;;3.85;2.50;;;15.50;81.00;;;;;;6209690;23;20284;-89
2021/12/31 00:30:38;;;;;;;8.40;2.28;;;15.40;81.40;;;;;;6191474;23;20579;-88
2021/12/31 00:33:07;;;;;;;4.57;2.22;;;15.40;81.20;;;;;;6192538;23;20157;-88
2021/12/31 00:35:33;;;;;;;10.80;3.22;;;15.50;81.20;;;;;;6193338;23;20168;-89
2021/12/31 00:37:59;;;;;;;3.78;2.55;;;15.60;80.60;;;;;;6190965;23;20181;-89
2021/12/31 00:40:26;;;;;;;4.47;2.97;;;15.50;80.40;;;;;;6191597;23;20556;-88
2021/12/31 00:42:52;;;;;;;4.38;2.53;;;15.40;80.60;;;;;;6191220;23;20427;-88
2021/12/31 00:45:21;;;;;;;7.23;2.20;;;15.50;81.00;;;;;;6193179;23;20181;-89
2021/12/31 00:47:48;;;;;;;5.22;2.13;;;15.50;80.30;;;;;;6192959;23;20412;-88
2021/12/31 00:50:14;;;;;;;2.30;2.00;;;15.50;80.30;;;;;;6192442;23;20161;-88
2021/12/31 00:52:41;;;;;;;3.80;2.67;;;15.50;80.50;;;;;;6218689;23;20157;-88
2021/12/31 00:55:08;;;;;;;2.25;2.05;;;15.40;80.10;;;;;;6192131;23;20212;-89
2021/12/31 00:57:34;;;;;;;10.13;2.90;;;15.50;80.20;;;;;;6192556;23;20180;-89
2021/12/31 01:00:00;;;;;;;8.60;2.75;;;15.40;80.20;;;;;;6192843;23;20164;-88
2021/12/31 01:02:28;;;;;;;6.47;2.80;;;15.40;80.40;;;;;;6191948;23;20181;-88
2021/12/31 01:04:54;;;;;;;7.22;2.90;;;15.50;80.30;;;;;;6192703;23;20490;-88
2021/12/31 01:07:20;;;;;;;6.95;3.30;;;15.40;80.00;;;;;;6192443;23;20200;-88
2021/12/31 01:09:46;;;;;;;7.50;2.43;;;15.40;80.50;;;;;;6192347;23;20159;-88
2021/12/31 01:12:13;;;;;;;5.30;2.50;;;15.40;80.50;;;;;;6192257;23;20232;-89
2021/12/31 01:14:51;;;;;;;6.38;2.92;;;15.50;80.80;;;;;;6192194;23;20384;-89
2021/12/31 01:17:21;;;;;;;10.27;3.13;;;15.50;80.40;;;;;;6219264;23;20169;-88
2021/12/31 01:19:48;;;;;;;9.18;2.85;;;15.40;80.10;;;;;;6192341;23;20231;-88
2021/12/31 01:22:27;;;;;;;5.53;2.25;;;15.50;80.30;;;;;;6192768;23;20247;-88
2021/12/31 01:24:53;;;;;;;5.65;2.95;;;15.40;79.60;;;;;;6192251;23;20157;-89
2021/12/31 01:27:19;;;;;;;4.70;2.60;;;15.50;80.10;;;;;;6191539;23;20511;-88
2021/12/31 01:29:44;;;;;;;5.38;2.50;;;15.40;80.30;;;;;;6191977;23;20157;-88
2021/12/31 01:32:11;;;;;;;9.77;3.57;;;15.50;80.60;;;;;;6193367;23;20165;-88
2021/12/31 01:34:37;;;;;;;7.03;2.90;;;15.50;80.70;;;;;;6198982;23;20157;-88
2021/12/31 01:37:04;;;;;;;5.22;2.72;;;15.40;80.10;;;;;;6200246;23;20196;-88
2021/12/31 01:39:30;;;;;;;15.80;3.30;;;15.50;80.20;;;;;;6197370;23;20165;-88
2021/12/31 01:41:58;;;;;;;7.18;2.72;;;15.50;80.20;;;;;;6223972;23;20657;-88
2021/12/31 01:44:33;;;;;;;4.10;2.80;;;15.60;79.70;;;;;;6196604;23;20161;-89
2021/12/31 01:47:04;;;;;;;3.15;2.50;;;15.60;79.60;;;;;;6196075;23;20145;-89
2021/12/31 01:49:35;;;;;;;4.70;2.50;;;15.60;79.70;;;;;;6192245;23;20679;-88
2021/12/31 01:52:01;;;;;;;3.20;2.50;;;15.60;80.10;;;;;;6191829;23;20288;-88
2021/12/31 01:54:29;;;;;;;4.40;2.40;;;15.50;79.70;;;;;;6191183;23;20157;-89
2021/12/31 01:56:55;;;;;;;4.10;2.85;;;15.60;79.40;;;;;;6192641;23;20602;-89
2021/12/31 01:59:21;;;;;;;5.53;2.63;;;15.50;79.60;;;;;;6194760;23;20612;-88
2021/12/31 02:01:47;;;;;;;2.80;2.30;;;15.40;79.30;;;;;;6198677;23;20185;-89
2021/12/31 02:04:13;;;;;;;12.13;3.10;;;15.40;79.70;;;;;;6197291;23;20157;-89
2021/12/31 02:06:39;;;;;;;8.37;3.27;;;15.30;79.70;;;;;;6226135;23;20368;-89
2021/12/31 02:09:06;;;;;;;11.60;3.50;;;15.40;79.90;;;;;;6194813;23;20431;-89
2021/12/31 02:11:33;;;;;;;2.97;2.28;;;15.40;80.00;;;;;;6219352;23;20785;-90
2021/12/31 02:14:00;;;;;;;7.20;3.00;;;15.40;80.00;;;;;;6192848;23;20157;-90
2021/12/31 02:16:25;;;;;;;8.20;2.80;;;15.20;79.90;;;;;;6191955;23;20157;-90
2021/12/31 02:18:51;;;;;;;9.80;2.93;;;15.20;80.10;;;;;;6192023;23;20260;-89
2021/12/31 02:21:17;;;;;;;12.13;3.13;;;15.30;80.10;;;;;;6191852;23;20157;-89
2021/12/31 02:23:46;;;;;;;8.45;3.10;;;15.20;80.00;;;;;;6191089;23;20168;-89
2021/12/31 02:26:12;;;;;;;11.73;3.47;;;15.10;80.40;;;;;;6191270;23;20154;-90
2021/12/31 02:28:39;;;;;;;7.22;3.00;;;15.20;80.40;;;;;;6191093;23;20183;-90
2021/12/31 02:31:05;;;;;;;8.15;3.53;;;15.10;80.40;;;;;;6191312;23;20157;-90
2021/12/31 02:33:32;;;;;;;10.70;2.70;;;15.00;80.60;;;;;;6191233;23;20160;-90
2021/12/31 02:36:02;;;;;;;6.07;2.97;;;15.10;80.90;;;;;;6190956;23;20181;-90
2021/12/31 02:38:28;;;;;;;2.78;2.58;;;15.10;81.00;;;;;;6191250;23;20225;-89
2021/12/31 02:40:54;;;;;;;8.70;3.00;;;15.00;81.20;;;;;;6191020;23;20161;-90
2021/12/31 02:43:20;;;;;;;6.85;2.85;;;15.00;81.00;;;;;;6217624;23;20414;-90
2021/12/31 02:45:47;;;;;;;10.40;3.30;;;15.00;80.90;;;;;;6191842;23;20154;-89
2021/12/31 02:48:13;;;;;;;9.77;3.03;;;15.10;81.10;;;;;;6190898;23;20739;-89
2021/12/31 02:50:42;;;;;;;11.40;3.13;;;15.10;81.10;;;;;;6217864;23;20614;-89
2021/12/31 02:53:12;;;;;;;8.05;3.15;;;15.00;80.60;;;;;;6194030;23;20176;-89
2021/12/31 02:55:41;;;;;;;9.27;3.05;;;15.10;80.80;;;;;;6190529;23;20161;-89
2021/12/31 02:58:07;;;;;;;8.57;3.08;;;15.10;80.70;;;;;;6217250;23;20184;-89
2021/12/31 03:00:35;;;;;;;5.07;3.08;;;15.10;80.50;;;;;;6191510;23;20153;-89
2021/12/31 03:03:04;;;;;;;5.43;3.03;;;15.00;80.70;;;;;;6193515;23;20181;-90
2021/12/31 03:05:31;;;;;;;6.78;3.00;;;15.00;80.80;;;;;;6198213;23;20164;-90
2021/12/31 03:07:58;;;;;;;10.93;3.85;;;15.10;80.90;;;;;;6200153;23;20535;-90
2021/12/31 03:10:26;;;;;;;9.82;3.63;;;15.10;80.80;;;;;;6199156;23;20153;-89
2021/12/31 03:12:53;;;;;;;7.07;3.58;;;15.00;80.70;;;;;;6198091;23;20184;-89
2021/12/31 03:15:19;;;;;;;8.65;3.15;;;15.10;81.00;;;;;;6194659;23;20161;-90
2021/12/31 03:17:46;;;;;;;6.55;2.72;;;15.10;81.00;;;;;;6217324;23;20192;-89
2021/12/31 03:20:16;;;;;;;5.85;3.03;;;15.20;80.70;;;;;;6190735;23;20157;-89
2021/12/31 03:22:43;;;;;;;6.10;2.85;;;15.00;80.50;;;;;;6190340;23;20169;-89
2021/12/31 03:25:10;;;;;;;6.60;3.22;;;15.20;80.60;;;;;;6190352;23;20157;-90
2021/12/31 03:27:36;;;;;;;10.90;3.20;;;15.10;80.30;;;;;;6190425;23;20244;-89
2021/12/31 03:30:04;;;;;;;5.32;3.63;;;15.20;80.30;;;;;;6191211;23;20164;-90
2021/12/31 03:32:30;;;;;;;4.15;3.25;;;14.90;80.20;;;;;;6190563;23;20161;-90
2021/12/31 03:34:56;;;;;;;9.85;4.00;;;14.90;80.70;;;;;;6190578;23;20157;-90
2021/12/31 03:37:22;;;;;;;6.90;3.70;;;15.00;80.80;;;;;;6190378;23;20630;-90
2021/12/31 03:39:48;;;;;;;6.27;3.80;;;14.90;80.90;;;;;;6190808;23;20381;-90
2021/12/31 03:42:16;;;;;;;8.83;4.30;;;14.80;80.80;;;;;;6218605;23;20184;-90
2021/12/31 03:44:45;;;;;;;4.68;3.30;;;14.80;81.40;;;;;;6195072;23;20165;-90
2021/12/31 03:47:11;;;;;;;8.38;3.28;;;14.90;81.30;;;;;;6198500;23;20192;-90
2021/12/31 17:04:35;;;;;;;13.95;8.80;;;14.10;87.20;;;;;;6243761;22;20189;-90
2021/12/31 17:07:01;;;;;;;9.60;7.85;;;14.10;87.50;;;;;;6191021;23;20244;-87
2021/12/31 17:09:27;;;;;;;26.17;13.10;;;14.20;87.40;;;;;;6191015;23;20153;-88
2021/12/31 17:11:53;;;;;;;12.37;8.13;;;14.30;87.40;;;;;;6217136;23;20153;-88
2021/12/31 17:14:19;;;;;;;14.97;9.80;;;14.20;87.10;;;;;;6190753;23;20161;-88
2021/12/31 17:16:46;;;;;;;18.75;10.60;;;14.30;86.80;;;;;;6191660;23;20256;-87
2021/12/31 17:19:12;;;;;;;13.68;7.53;;;14.30;86.50;;;;;;6194857;23;20184;-88
2021/12/31 17:21:38;;;;;;;18.08;6.10;;;14.40;86.40;;;;;;6192119;23;20161;-88
2021/12/31 17:24:18;;;;;;;14.75;6.85;;;14.40;86.10;;;;;;6198095;23;20216;-88
2021/12/31 17:26:44;;;;;;;9.75;6.50;;;14.40;85.80;;;;;;6196023;23;20177;-88
2021/12/31 17:29:09;;;;;;;9.53;6.43;;;14.40;85.60;;;;;;6197373;23;20619;-88
2021/12/31 17:31:35;;;;;;;11.80;6.47;;;14.40;85.40;;;;;;6194607;23;20380;-88
2021/12/31 17:34:01;;;;;;;11.87;6.00;;;14.40;85.20;;;;;;6193491;23;20160;-88
2021/12/31 17:36:27;;;;;;;9.77;6.97;;;14.50;85.30;;;;;;6221004;23;20196;-88
2021/12/31 17:38:52;;;;;;;9.30;6.23;;;14.50;85.00;;;;;;6193809;23;20241;-88
2021/12/31 17:41:18;;;;;;;9.00;6.73;;;14.50;84.90;;;;;;6195076;23;20721;-88
2021/12/31 17:43:44;;;;;;;15.53;6.70;;;14.50;85.00;;;;;;6220288;23;20177;-88
2021/12/31 17:46:10;;;;;;;14.83;7.70;;;14.60;85.10;;;;;;6193987;23;20230;-88
2021/12/31 17:48:38;;;;;;;17.97;11.13;;;14.80;84.70;;;;;;6197449;23;20396;-88
2021/12/31 17:51:05;;;;;;;17.05;9.30;;;14.80;84.20;;;;;;6200662;23;20153;-88
2021/12/31 17:53:31;;;;;;;13.85;7.13;;;14.90;84.10;;;;;;6206032;23;20157;-88
2021/12/31 17:55:57;;;;;;;13.40;8.13;;;14.80;84.00;;;;;;6195013;23;20207;-88
2021/12/31 17:58:25;;;;;;;13.18;6.40;;;14.80;84.10;;;;;;6195957;23;20395;-88
2021/12/31 18:00:51;;;;;;;15.85;7.75;;;14.80;83.80;;;;;;6195206;23;20529;-89
2021/12/31 18:03:17;;;;;;;12.47;7.30;;;14.80;84.60;;;;;;6199028;23;20185;-88
2021/12/31 18:05:42;;;;;;;11.43;6.65;;;14.80;84.00;;;;;;6172201;23;20511;-89
2021/12/31 18:08:08;;;;;;;16.13;7.43;;;14.70;84.10;;;;;;6198027;23;20294;-88
2021/12/31 18:10:34;;;;;;;13.37;7.20;;;14.80;84.00;;;;;;6194393;23;20153;-88
2021/12/31 18:12:59;;;;;;;11.50;8.17;;;14.70;84.30;;;;;;6193341;23;20447;-88
2021/12/31 18:15:25;;;;;;;17.07;9.10;;;14.70;84.60;;;;;;6193202;23;20688;-88
2021/12/31 18:17:51;;;;;;;17.87;7.83;;;14.80;84.50;;;;;;6199219;23;20215;-88
2021/12/31 18:20:17;;;;;;;12.20;7.40;;;14.70;84.50;;;;;;6207140;23;20395;-88
2021/12/31 18:22:43;;;;;;;13.10;7.60;;;14.70;84.80;;;;;;6195399;23;20181;-88
2021/12/31 18:25:08;;;;;;;17.27;7.07;;;14.60;84.90;;;;;;6193767;23;20401;-88
2021/12/31 18:27:34;;;;;;;17.57;8.57;;;14.60;84.90;;;;;;6197176;23;20160;-88
2021/12/31 18:30:00;;;;;;;16.63;8.07;;;14.60;84.90;;;;;;6198599;23;20149;-88
2021/12/31 18:32:26;;;;;;;15.27;7.70;;;14.60;85.20;;;;;;6207276;23;20460;-89
2021/12/31 18:34:52;;;;;;;15.07;7.78;;;14.50;85.50;;;;;;6193360;23;20408;-89
2021/12/31 18:37:17;;;;;;;20.97;8.47;;;14.50;85.70;;;;;;6192457;23;20161;-88
2021/12/31 18:39:43;;;;;;;13.90;8.43;;;14.40;85.90;;;;;;6192473;23;20165;-89
2021/12/31 18:42:09;;;;;;;24.13;9.40;;;14.40;86.10;;;;;;6192031;23;20181;-89
2021/12/31 18:44:36;;;;;;;23.03;8.43;;;14.50;86.30;;;;;;6192262;23;20192;-89
2021/12/31 18:49:48;;;;;;;21.10;8.95;;;14.40;86.50;;;;;;6229683;23;20137;-88
2021/12/31 18:52:14;;;;;;;15.32;9.55;;;14.40;86.70;;;;;;6192197;23;20157;-89
2021/12/31 18:54:40;;;;;;;14.48;7.90;;;14.40;86.90;;;;;;6192362;23;20161;-88
2021/12/31 18:57:07;;;;;;;16.40;8.40;;;14.40;86.90;;;;;;6195819;23;20165;-89
2021/12/31 18:59:33;;;;;;;24.25;7.88;;;14.40;87.00;;;;;;6188689;23;20199;-89
2021/12/31 19:01:58;;;;;;;27.37;9.83;;;14.50;86.90;;;;;;6218525;23;20176;-88
2021/12/31 19:04:24;;;;;;;14.03;8.63;;;14.50;86.70;;;;;;6191026;23;20229;-88
2021/12/31 19:06:50;;;;;;;20.37;9.00;;;14.60;86.50;;;;;;6191573;23;20629;-89
2021/12/31 19:09:15;;;;;;;25.07;9.23;;;14.60;86.20;;;;;;6195116;23;20459;-88
2021/12/31 19:11:41;;;;;;;21.10;10.70;;;14.60;86.20;;;;;;6191763;23;20149;-88
2021/12/31 19:14:07;;;;;;;13.23;7.97;;;14.50;86.10;;;;;;6193312;23;20177;-89
2021/12/31 19:16:33;;;;;;;17.38;9.10;;;14.50;86.30;;;;;;6192106;23;20177;-88
2021/12/31 19:18:59;;;;;;;18.03;8.60;;;14.50;87.00;;;;;;6192079;23;20157;-88
2021/12/31 19:21:25;;;;;;;13.57;7.60;;;14.50;86.20;;;;;;6191809;23;20854;-88
2021/12/31 19:23:50;;;;;;;23.97;9.70;;;14.40;85.80;;;;;;6191305;23;20177;-89
2021/12/31 19:26:16;;;;;;;14.07;7.80;;;14.40;86.00;;;;;;6192411;23;20208;-89
2021/12/31 19:28:42;;;;;;;17.60;7.67;;;14.50;86.30;;;;;;6191492;23;20505;-89
2021/12/31 19:31:08;;;;;;;14.03;8.57;;;14.50;86.10;;;;;;6192531;23;20200;-89
2021/12/31 19:33:34;;;;;;;15.23;7.93;;;14.40;86.10;;;;;;6192116;23;20180;-89
2021/12/31 19:36:01;;;;;;;12.63;8.18;;;14.40;86.40;;;;;;6218343;23;20396;-89
2021/12/31 19:38:27;;;;;;;16.98;8.45;;;14.50;86.30;;;;;;6191428;23;20232;-89
2021/12/31 19:40:53;;;;;;;22.80;9.47;;;14.50;86.10;;;;;;6191433;23;20165;-88
2021/12/31 19:43:19;;;;;;;25.65;8.15;;;14.60;85.70;;;;;;6190710;23;20185;-87
2021/12/31 19:45:46;;;;;;;12.82;7.65;;;14.50;85.50;;;;;;6191602;23;20267;-87
2021/12/31 19:48:12;;;;;;;26.00;8.80;;;14.50;85.50;;;;;;6190717;23;20157;-88
2021/12/31 19:50:43;;;;;;;13.32;7.75;;;14.40;85.50;;;;;;6191834;23;20160;-88
2021/12/31 19:53:09;;;;;;;19.55;8.25;;;14.30;85.50;;;;;;6192985;23;20158;-88
2021/12/31 19:55:37;;;;;;;22.75;8.88;;;14.20;85.70;;;;;;6192690;23;20523;-88
2021/12/31 19:58:04;;;;;;;16.60;7.30;;;14.20;86.00;;;;;;6192366;23;20161;-88
2021/12/31 20:00:32;;;;;;;24.38;8.75;;;14.20;86.30;;;;;;6192016;23;20208;-88
2021/12/31 20:02:59;;;;;;;13.40;7.57;;;14.20;86.20;;;;;;6192846;23;20181;-88
2021/12/31 20:05:27;;;;;;;26.98;6.90;;;14.20;86.10;;;;;;6194324;23;20188;-89
2021/12/31 20:07:53;;;;;;;20.58;7.43;;;14.20;85.90;;;;;;6200312;23;20157;-89
2021/12/31 20:10:19;;;;;;;22.83;7.77;;;14.10;86.00;;;;;;6203613;23;20224;-87
2021/12/31 20:12:48;;;;;;;17.50;8.20;;;14.00;86.20;;;;;;6198814;23;20412;-89
2021/12/31 20:15:15;;;;;;;14.27;7.13;;;14.10;86.20;;;;;;6197747;23;20177;-88
2021/12/31 20:17:43;;;;;;;29.65;7.85;;;14.10;86.20;;;;;;6196118;23;20153;-88
2021/12/31 20:20:11;;;;;;;19.45;7.78;;;14.10;86.20;;;;;;6199796;23;20264;-88
2021/12/31 20:22:38;;;;;;;19.75;7.88;;;14.20;86.20;;;;;;6206002;23;20181;-89
2021/12/31 20:25:06;;;;;;;25.38;9.52;;;14.10;86.10;;;;;;6199911;23;20181;-88
2021/12/31 20:27:42;;;;;;;21.35;9.45;;;14.20;86.00;;;;;;6195610;23;20213;-87
2021/12/31 20:30:09;;;;;;;17.73;8.20;;;14.20;85.90;;;;;;6191299;23;20228;-89
2021/12/31 20:32:35;;;;;;;18.42;8.10;;;14.20;85.70;;;;;;6191386;23;20157;-87
2021/12/31 20:35:01;;;;;;;18.37;7.37;;;14.30;85.70;;;;;;6190630;23;20211;-87
2021/12/31 20:37:27;;;;;;;17.13;7.90;;;14.30;85.70;;;;;;6190610;23;20211;-87
2021/12/31 20:39:53;;;;;;;24.50;7.40;;;14.30;85.70;;;;;;6191231;23;20185;-87
2021/12/31 20:42:19;;;;;;;23.40;7.85;;;14.30;85.60;;;;;;6218548;23;20508;-87
2021/12/31 20:44:45;;;;;;;27.40;8.40;;;14.30;85.60;;;;;;6189849;23;20251;-87
2021/12/31 20:47:11;;;;;;;23.77;7.47;;;14.40;85.70;;;;;;6217095;23;20392;-88
2021/12/31 20:49:37;;;;;;;16.27;7.47;;;14.50;85.60;;;;;;6190424;23;20603;-87
2021/12/31 20:52:04;;;;;;;16.27;7.25;;;14.50;85.40;;;;;;6191302;23;20199;-87
2021/12/31 20:54:30;;;;;;;14.00;7.13;;;14.50;85.30;;;;;;6218272;23;20175;-89
2021/12/31 20:56:57;;;;;;;16.52;7.53;;;14.60;85.10;;;;;;6193158;23;20284;-89
2021/12/31 20:59:22;;;;;;;18.35;7.38;;;14.70;84.70;;;;;;6194093;23;20164;-90
2021/12/31 21:01:48;;;;;;;19.67;8.23;;;14.70;84.70;;;;;;6195636;23;20162;-89
2021/12/31 21:04:29;;;;;;;18.38;8.10;;;14.70;84.70;;;;;;6195756;23;20881;-89
2021/12/31 21:06:55;;;;;;;21.40;7.82;;;14.70;84.60;;;;;;6196188;23;20239;-89
2021/12/31 21:09:21;;;;;;;17.93;7.13;;;14.50;84.90;;;;;;6196047;23;20161;-89
2021/12/31 21:11:46;;;;;;;15.07;7.13;;;14.60;84.70;;;;;;6195639;23;20161;-89
2021/12/31 21:14:12;;;;;;;18.83;7.90;;;14.50;84.90;;;;;;6195200;23;20552;-89
2021/12/31 21:16:38;;;;;;;31.33;9.07;;;14.60;85.00;;;;;;6197001;23;20177;-89
2021/12/31 21:19:04;;;;;;;20.13;7.73;;;14.60;84.90;;;;;;6195828;23;20157;-89
2021/12/31 21:21:29;;;;;;;19.67;8.50;;;14.60;85.00;;;;;;6194922;23;20379;-89
2021/12/31 21:23:55;;;;;;;17.10;8.63;;;14.60;84.90;;;;;;6195616;23;20184;-89
2021/12/31 21:26:21;;;;;;;22.10;8.73;;;14.60;84.80;;;;;;6196635;23;20169;-90
2021/12/31 21:28:47;;;;;;;13.40;6.67;;;14.60;85.00;;;;;;6196791;23;20381;-89
2021/12/31 21:31:13;;;;;;;18.90;9.80;;;14.60;84.90;;;;;;6223038;23;20223;-89
2021/12/31 21:33:39;;;;;;;16.93;8.60;;;14.70;84.80;;;;;;6196703;23;20604;-90
2021/12/31 21:36:05;;;;;;;18.63;8.60;;;14.80;84.40;;;;;;6196697;23;20534;-89
2021/12/31 21:38:33;;;;;;;22.67;9.80;;;14.70;84.30;;;;;;6198401;23;20246;-89
2021/12/31 21:40:58;;;;;;;18.92;7.82;;;14.70;84.20;;;;;;6201444;23;20157;-89
2021/12/31 21:43:24;;;;;;;29.00;8.63;;;14.70;84.40;;;;;;6207968;23;20176;-90
2021/12/31 21:45:50;;;;;;;15.93;8.40;;;14.60;84.30;;;;;;6204900;23;20208;-89
2021/12/31 21:48:16;;;;;;;21.70;7.87;;;14.60;84.60;;;;;;6195604;23;20184;-89
2021/12/31 21:50:41;;;;;;;16.43;8.30;;;14.60;84.50;;;;;;6196158;23;20878;-89
2021/12/31 21:53:07;;;;;;;24.67;8.30;;;14.60;84.70;;;;;;6207180;23;20198;-90
2021/12/31 21:55:34;;;;;;;27.80;8.77;;;14.70;85.00;;;;;;6208440;23;20177;-89
2021/12/31 21:58:00;;;;;;;15.18;7.75;;;14.60;84.90;;;;;;6197958;23;20153;-89
2021/12/31 22:00:27;;;;;;;22.97;8.80;;;14.60;85.00;;;;;;6201557;23;20172;-89
2021/12/31 22:02:53;;;;;;;20.83;8.55;;;14.60;84.90;;;;;;6205696;23;20420;-88
2021/12/31 22:05:19;;;;;;;26.95;9.63;;;14.70;85.00;;;;;;6194476;23;20185;-89
2021/12/31 22:07:46;;;;;;;28.88;9.40;;;14.60;84.90;;;;;;6193950;23;20181;-89
2021/12/31 22:10:12;;;;;;;24.85;8.30;;;14.80;84.90;;;;;;6194984;23;20267;-89
2021/12/31 22:12:38;;;;;;;29.10;8.50;;;14.80;84.50;;;;;;6196648;23;20522;-89
2021/12/31 22:15:04;;;;;;;28.83;9.03;;;14.80;84.40;;;;;;6204274;23;20181;-88
2021/12/31 22:17:30;;;;;;;23.60;9.45;;;14.90;84.20;;;;;;6198362;23;20472;-89
2021/12/31 22:19:56;;;;;;;27.47;9.07;;;14.70;84.40;;;;;;6170468;23;20172;-88
2021/12/31 22:22:22;;;;;;;25.87;8.80;;;14.80;84.30;;;;;;6198843;23;20424;-89
2021/12/31 22:24:47;;;;;;;16.40;8.83;;;14.70;84.40;;;;;;6197405;23;20232;-90
2021/12/31 22:27:13;;;;;;;19.80;8.30;;;14.70;84.60;;;;;;6195492;23;20467;-89
2021/12/31 22:29:39;;;;;;;24.23;8.10;;;14.60;84.70;;;;;;6192814;23;20153;-89
2021/12/31 22:32:05;;;;;;;27.30;9.00;;;14.60;84.90;;;;;;6192435;23;20215;-88
2021/12/31 22:34:31;;;;;;;19.05;9.13;;;14.50;85.10;;;;;;6192411;23;20168;-87
2021/12/31 22:36:57;;;;;;;21.77;8.47;;;14.60;85.10;;;;;;6191285;23;20165;-89
2021/12/31 22:39:23;;;;;;;25.40;9.02;;;14.50;85.00;;;;;;6191536;23;20733;-89
2021/12/31 22:41:49;;;;;;;20.55;10.15;;;14.40;85.10;;;;;;6192785;23;20185;-89
2021/12/31 22:44:15;;;;;;;21.20;10.50;;;14.40;86.20;;;;;;6192415;23;20471;-89
2021/12/31 22:46:41;;;;;;;29.77;11.75;;;14.40;85.60;;;;;;6192460;23;20220;-89
2021/12/31 22:49:07;;;;;;;22.83;11.40;;;14.40;85.70;;;;;;6218916;23;20149;-89
2021/12/31 22:51:34;;;;;;;42.70;10.85;;;14.20;86.00;;;;;;6192536;23;20381;-89
2021/12/31 22:53:59;;;;;;;38.10;10.60;;;14.20;86.30;;;;;;6192127;23;20165;-89
2021/12/31 22:56:26;;;;;;;34.00;11.93;;;14.20;86.30;;;;;;6192332;23;20177;-89
2021/12/31 22:58:52;;;;;;;33.90;10.55;;;14.40;86.20;;;;;;6192002;23;20430;-89
2021/12/31 23:01:21;;;;;;;41.23;10.03;;;14.30;86.20;;;;;;6191216;23;20240;-89
2021/12/31 23:03:48;;;;;;;22.83;12.50;;;14.30;86.20;;;;;;6191335;23;20439;-89
2021/12/31 23:06:15;;;;;;;28.55;10.02;;;14.30;86.10;;;;;;6190889;23;20240;-89
2021/12/31 23:08:41;;;;;;;27.08;11.05;;;14.40;86.20;;;;;;6190664;23;20231;-89
2021/12/31 23:11:08;;;;;;;44.90;13.23;;;14.40;86.20;;;;;;6191181;23;20487;-90
2021/12/31 23:13:34;;;;;;;38.95;12.95;;;14.30;86.20;;;;;;6191405;23;21150;-89
2021/12/31 23:16:00;;;;;;;27.20;10.38;;;14.20;86.30;;;;;;6189649;23;20187;-89
2021/12/31 23:18:26;;;;;;;30.52;9.73;;;14.30;86.50;;;;;;6191278;23;20153;-89
2021/12/31 23:20:51;;;;;;;26.67;9.83;;;14.20;86.40;;;;;;6194418;23;20204;-90
2021/12/31 23:23:19;;;;;;;33.67;11.80;;;14.30;86.40;;;;;;6195571;23;20459;-89
2021/12/31 23:25:44;;;;;;;38.42;11.80;;;14.20;86.20;;;;;;6192862;23;20189;-89
2021/12/31 23:28:10;;;;;;;39.90;14.93;;;14.10;86.40;;;;;;6191401;23;20255;-89
2021/12/31 23:30:36;;;;;;;36.67;14.50;;;14.10;86.40;;;;;;6191544;23;20162;-89
2021/12/31 23:33:02;;;;;;;41.72;14.45;;;14.10;86.40;;;;;;6191620;23;20168;-90
2021/12/31 23:35:28;;;;;;;39.60;16.07;;;14.10;86.20;;;;;;6192102;23;20205;-89
2021/12/31 23:37:53;;;;;;;40.80;16.97;;;14.00;86.30;;;;;;6191301;23;20157;-89
2021/12/31 23:40:20;;;;;;;29.93;14.80;;;13.90;86.60;;;;;;6190526;23;20161;-89
2021/12/31 23:42:48;;;;;;;42.22;18.20;;;13.90;86.80;;;;;;6190050;23;20902;-89
2021/12/31 23:45:17;;;;;;;28.67;14.80;;;14.00;86.80;;;;;;6190854;23;20235;-89
2021/12/31 23:47:43;;;;;;;37.20;14.25;;;14.00;86.90;;;;;;6190767;23;20533;-89
2021/12/31 23:50:11;;;;;;;39.87;13.10;;;14.10;87.00;;;;;;6193918;23;20196;-89
2021/12/31 23:52:37;;;;;;;30.77;11.88;;;14.10;86.90;;;;;;6198685;23;20393;-89
2021/12/31 23:55:03;;;;;;;33.77;11.53;;;14.20;86.90;;;;;;6195872;23;20529;-90
2021/12/31 23:57:29;;;;;;;33.20;11.63;;;14.30;86.80;;;;;;6190940;23;20161;-89
2021/12/31 23:59:56;;;;;;;33.03;12.07;;;14.30;87.40;;;;;;6190447;23;20487;-89
